sensor_id;sensor_type;location;lat;lon;timestamp;temperature;humidity
72710;SHT30;60827;48.398;-4.498;2022-07-29T00:01:05;22.73;53.73
72710;SHT30;60827;48.398;-4.498;2022-07-29T00:03:30;22.70;53.81
72710;SHT30;60827;48.398;-4.498;2022-07-29T00:05:56;22.70;53.88
72710;SHT30;60827;48.398;-4.498;2022-07-29T00:08:21;22.65;54.24
72710;SHT30;60827;48.398;-4.498;2022-07-29T00:10:47;22.65;54.17
72710;SHT30;60827;48.398;-4.498;2022-07-29T00:13:12;22.60;54.33
72710;SHT30;60827;48.398;-4.498;2022-07-29T00:15:37;22.57;54.42
72710;SHT30;60827;48.398;-4.498;2022-07-29T00:18:03;22.55;54.53
72710;SHT30;60827;48.398;-4.498;2022-07-29T00:20:29;22.56;54.65
72710;SHT30;60827;48.398;-4.498;2022-07-29T00:22:54;22.52;54.93
72710;SHT30;60827;48.398;-4.498;2022-07-29T00:25:19;22.46;55.30
72710;SHT30;60827;48.398;-4.498;2022-07-29T00:27:45;22.46;55.27
72710;SHT30;60827;48.398;-4.498;2022-07-29T00:30:13;22.46;55.43
72710;SHT30;60827;48.398;-4.498;2022-07-29T00:32:39;22.45;55.50
72710;SHT30;60827;48.398;-4.498;2022-07-29T00:35:05;22.42;55.67
72710;SHT30;60827;48.398;-4.498;2022-07-29T00:37:49;22.44;55.56
72710;SHT30;60827;48.398;-4.498;2022-07-29T00:40:14;22.39;55.98
72710;SHT30;60827;48.398;-4.498;2022-07-29T00:42:44;22.39;55.91
72710;SHT30;60827;48.398;-4.498;2022-07-29T00:45:10;22.36;56.16
72710;SHT30;60827;48.398;-4.498;2022-07-29T00:47:35;22.34;56.12
72710;SHT30;60827;48.398;-4.498;2022-07-29T00:50:01;22.31;56.33
72710;SHT30;60827;48.398;-4.498;2022-07-29T00:52:26;22.28;56.35
72710;SHT30;60827;48.398;-4.498;2022-07-29T00:54:52;22.26;56.35
72710;SHT30;60827;48.398;-4.498;2022-07-29T00:57:17;22.25;56.46
72710;SHT30;60827;48.398;-4.498;2022-07-29T00:59:43;22.22;56.64
72710;SHT30;60827;48.398;-4.498;2022-07-29T01:02:08;22.19;56.84
72710;SHT30;60827;48.398;-4.498;2022-07-29T01:04:34;22.19;56.74
72710;SHT30;60827;48.398;-4.498;2022-07-29T01:07:04;22.15;57.10
72710;SHT30;60827;48.398;-4.498;2022-07-29T01:09:32;22.14;57.40
72710;SHT30;60827;48.398;-4.498;2022-07-29T01:11:58;22.11;57.29
72710;SHT30;60827;48.398;-4.498;2022-07-29T01:14:25;22.09;57.41
72710;SHT30;60827;48.398;-4.498;2022-07-29T01:17:11;22.02;58.27
72710;SHT30;60827;48.398;-4.498;2022-07-29T01:30:25;21.95;58.32
72710;SHT30;60827;48.398;-4.498;2022-07-29T01:33:11;21.91;58.67
72710;SHT30;60827;48.398;-4.498;2022-07-29T01:36:01;21.87;58.65
72710;SHT30;60827;48.398;-4.498;2022-07-29T01:38:29;21.85;58.70
72710;SHT30;60827;48.398;-4.498;2022-07-29T01:41:05;21.84;59.24
72710;SHT30;60827;48.398;-4.498;2022-07-29T01:43:59;21.81;59.58
72710;SHT30;60827;48.398;-4.498;2022-07-29T01:46:38;21.81;59.42
72710;SHT30;60827;48.398;-4.498;2022-07-29T01:49:16;21.78;60.36
72710;SHT30;60827;48.398;-4.498;2022-07-29T01:51:57;21.74;60.11
72710;SHT30;60827;48.398;-4.498;2022-07-29T01:54:32;21.71;59.76
72710;SHT30;60827;48.398;-4.498;2022-07-29T01:57:00;21.70;59.62
72710;SHT30;60827;48.398;-4.498;2022-07-29T01:59:26;21.67;59.74
72710;SHT30;60827;48.398;-4.498;2022-07-29T02:01:54;21.67;59.85
72710;SHT30;60827;48.398;-4.498;2022-07-29T02:04:23;21.66;59.93
72710;SHT30;60827;48.398;-4.498;2022-07-29T02:06:53;21.58;60.18
72710;SHT30;60827;48.398;-4.498;2022-07-29T02:09:20;21.57;60.39
72710;SHT30;60827;48.398;-4.498;2022-07-29T02:11:49;21.53;60.54
72710;SHT30;60827;48.398;-4.498;2022-07-29T02:14:18;21.49;60.73
72710;SHT30;60827;48.398;-4.498;2022-07-29T02:16:47;21.42;60.87
72710;SHT30;60827;48.398;-4.498;2022-07-29T02:19:14;21.40;61.07
72710;SHT30;60827;48.398;-4.498;2022-07-29T02:21:41;21.36;61.06
72710;SHT30;60827;48.398;-4.498;2022-07-29T02:24:11;21.35;61.16
72710;SHT30;60827;48.398;-4.498;2022-07-29T02:26:38;21.33;61.22
72710;SHT30;60827;48.398;-4.498;2022-07-29T02:29:04;21.32;61.35
72710;SHT30;60827;48.398;-4.498;2022-07-29T02:31:33;21.26;61.65
72710;SHT30;60827;48.398;-4.498;2022-07-29T02:34:01;21.25;61.70
72710;SHT30;60827;48.398;-4.498;2022-07-29T02:36:28;21.20;61.71
72710;SHT30;60827;48.398;-4.498;2022-07-29T02:38:56;21.18;61.68
72710;SHT30;60827;48.398;-4.498;2022-07-29T02:41:48;21.12;62.24
72710;SHT30;60827;48.398;-4.498;2022-07-29T02:44:16;21.13;61.90
72710;SHT30;60827;48.398;-4.498;2022-07-29T02:47:21;21.09;62.97
72710;SHT30;60827;48.398;-4.498;2022-07-29T02:49:56;21.02;62.54
72710;SHT30;60827;48.398;-4.498;2022-07-29T02:55:01;20.95;62.85
72710;SHT30;60827;48.398;-4.498;2022-07-29T02:57:34;20.94;62.87
72710;SHT30;60827;48.398;-4.498;2022-07-29T03:00:06;20.94;62.81
72710;SHT30;60827;48.398;-4.498;2022-07-29T03:02:38;20.88;63.26
72710;SHT30;60827;48.398;-4.498;2022-07-29T03:05:07;20.89;63.04
72710;SHT30;60827;48.398;-4.498;2022-07-29T03:07:34;20.86;63.10
72710;SHT30;60827;48.398;-4.498;2022-07-29T03:10:00;20.84;63.35
72710;SHT30;60827;48.398;-4.498;2022-07-29T03:12:28;20.79;63.70
72710;SHT30;60827;48.398;-4.498;2022-07-29T03:14:54;20.79;63.67
72710;SHT30;60827;48.398;-4.498;2022-07-29T03:17:24;20.75;64.01
72710;SHT30;60827;48.398;-4.498;2022-07-29T03:19:49;20.74;63.96
72710;SHT30;60827;48.398;-4.498;2022-07-29T03:22:15;20.71;64.14
72710;SHT30;60827;48.398;-4.498;2022-07-29T03:24:41;20.72;63.93
72710;SHT30;60827;48.398;-4.498;2022-07-29T03:27:06;20.69;63.89
72710;SHT30;60827;48.398;-4.498;2022-07-29T03:29:32;20.69;64.20
72710;SHT30;60827;48.398;-4.498;2022-07-29T03:32:01;20.65;64.36
72710;SHT30;60827;48.398;-4.498;2022-07-29T03:34:27;20.64;64.55
72710;SHT30;60827;48.398;-4.498;2022-07-29T03:36:52;20.67;64.57
72710;SHT30;60827;48.398;-4.498;2022-07-29T03:39:21;20.65;64.58
72710;SHT30;60827;48.398;-4.498;2022-07-29T03:41:49;20.63;64.72
72710;SHT30;60827;48.398;-4.498;2022-07-29T03:44:17;20.59;64.99
72710;SHT30;60827;48.398;-4.498;2022-07-29T03:46:46;20.58;65.11
72710;SHT30;60827;48.398;-4.498;2022-07-29T03:49:14;20.55;65.08
72710;SHT30;60827;48.398;-4.498;2022-07-29T03:51:41;20.55;65.07
72710;SHT30;60827;48.398;-4.498;2022-07-29T03:54:07;20.51;65.36
72710;SHT30;60827;48.398;-4.498;2022-07-29T03:56:35;20.48;65.33
72710;SHT30;60827;48.398;-4.498;2022-07-29T03:59:02;20.49;65.38
72710;SHT30;60827;48.398;-4.498;2022-07-29T04:01:29;20.45;65.54
72710;SHT30;60827;48.398;-4.498;2022-07-29T04:03:57;20.41;65.51
72710;SHT30;60827;48.398;-4.498;2022-07-29T04:06:23;20.40;65.85
72710;SHT30;60827;48.398;-4.498;2022-07-29T04:08:48;20.38;65.82
72710;SHT30;60827;48.398;-4.498;2022-07-29T04:11:14;20.33;66.06
72710;SHT30;60827;48.398;-4.498;2022-07-29T04:13:39;20.35;65.99
72710;SHT30;60827;48.398;-4.498;2022-07-29T04:16:04;20.31;66.11
72710;SHT30;60827;48.398;-4.498;2022-07-29T04:18:30;20.30;66.09
72710;SHT30;60827;48.398;-4.498;2022-07-29T04:20:55;20.27;66.08
72710;SHT30;60827;48.398;-4.498;2022-07-29T04:23:21;20.27;65.89
72710;SHT30;60827;48.398;-4.498;2022-07-29T04:25:47;20.25;65.97
72710;SHT30;60827;48.398;-4.498;2022-07-29T04:28:12;20.24;66.23
72710;SHT30;60827;48.398;-4.498;2022-07-29T04:30:38;20.23;66.20
72710;SHT30;60827;48.398;-4.498;2022-07-29T04:33:05;20.18;66.30
72710;SHT30;60827;48.398;-4.498;2022-07-29T04:35:34;20.18;66.46
72710;SHT30;60827;48.398;-4.498;2022-07-29T04:38:00;20.16;66.39
72710;SHT30;60827;48.398;-4.498;2022-07-29T04:40:25;20.13;66.88
72710;SHT30;60827;48.398;-4.498;2022-07-29T04:42:50;20.13;67.13
72710;SHT30;60827;48.398;-4.498;2022-07-29T04:45:16;20.10;67.01
72710;SHT30;60827;48.398;-4.498;2022-07-29T04:47:42;20.07;67.45
72710;SHT30;60827;48.398;-4.498;2022-07-29T04:50:09;20.06;67.37
72710;SHT30;60827;48.398;-4.498;2022-07-29T04:52:34;20.06;67.46
72710;SHT30;60827;48.398;-4.498;2022-07-29T04:55:01;20.03;67.87
72710;SHT30;60827;48.398;-4.498;2022-07-29T04:57:26;20.03;68.02
72710;SHT30;60827;48.398;-4.498;2022-07-29T04:59:52;20.03;67.99
72710;SHT30;60827;48.398;-4.498;2022-07-29T05:02:18;20.01;68.33
72710;SHT30;60827;48.398;-4.498;2022-07-29T05:04:43;20.00;68.20
72710;SHT30;60827;48.398;-4.498;2022-07-29T05:07:09;20.04;68.56
72710;SHT30;60827;48.398;-4.498;2022-07-29T05:09:34;20.00;68.39
72710;SHT30;60827;48.398;-4.498;2022-07-29T05:11:59;20.01;68.50
72710;SHT30;60827;48.398;-4.498;2022-07-29T05:14:25;19.98;68.60
72710;SHT30;60827;48.398;-4.498;2022-07-29T05:16:50;19.97;68.55
72710;SHT30;60827;48.398;-4.498;2022-07-29T05:19:17;19.97;68.81
72710;SHT30;60827;48.398;-4.498;2022-07-29T05:21:44;19.94;69.03
72710;SHT30;60827;48.398;-4.498;2022-07-29T05:24:09;19.94;68.77
72710;SHT30;60827;48.398;-4.498;2022-07-29T05:26:35;19.96;68.91
72710;SHT30;60827;48.398;-4.498;2022-07-29T05:29:00;20.00;68.60
72710;SHT30;60827;48.398;-4.498;2022-07-29T05:31:26;20.01;68.56
72710;SHT30;60827;48.398;-4.498;2022-07-29T05:33:51;20.01;68.84
72710;SHT30;60827;48.398;-4.498;2022-07-29T05:36:17;20.04;68.80
72710;SHT30;60827;48.398;-4.498;2022-07-29T05:38:42;20.04;68.76
72710;SHT30;60827;48.398;-4.498;2022-07-29T05:41:07;20.04;68.73
72710;SHT30;60827;48.398;-4.498;2022-07-29T05:43:33;20.09;68.72
72710;SHT30;60827;48.398;-4.498;2022-07-29T05:45:58;20.09;68.87
72710;SHT30;60827;48.398;-4.498;2022-07-29T05:48:24;20.10;68.93
72710;SHT30;60827;48.398;-4.498;2022-07-29T05:50:50;20.14;69.00
72710;SHT30;60827;48.398;-4.498;2022-07-29T05:53:16;20.17;68.72
72710;SHT30;60827;48.398;-4.498;2022-07-29T05:55:41;20.21;68.59
72710;SHT30;60827;48.398;-4.498;2022-07-29T05:58:06;20.24;68.57
72710;SHT30;60827;48.398;-4.498;2022-07-29T06:00:32;20.28;68.61
72710;SHT30;60827;48.398;-4.498;2022-07-29T06:02:57;20.34;68.48
72710;SHT30;60827;48.398;-4.498;2022-07-29T06:05:23;20.34;68.59
72710;SHT30;60827;48.398;-4.498;2022-07-29T06:07:48;20.35;68.61
72710;SHT30;60827;48.398;-4.498;2022-07-29T06:10:13;20.41;68.58
72710;SHT30;60827;48.398;-4.498;2022-07-29T06:12:39;20.45;68.43
72710;SHT30;60827;48.398;-4.498;2022-07-29T06:15:05;20.51;68.40
72710;SHT30;60827;48.398;-4.498;2022-07-29T06:17:30;20.54;68.41
72710;SHT30;60827;48.398;-4.498;2022-07-29T06:19:55;20.55;68.53
72710;SHT30;60827;48.398;-4.498;2022-07-29T06:22:24;20.61;68.44
72710;SHT30;60827;48.398;-4.498;2022-07-29T06:24:49;20.64;68.23
72710;SHT30;60827;48.398;-4.498;2022-07-29T06:27:15;20.68;68.10
72710;SHT30;60827;48.398;-4.498;2022-07-29T06:29:41;20.74;68.04
72710;SHT30;60827;48.398;-4.498;2022-07-29T06:32:07;20.78;68.02
72710;SHT30;60827;48.398;-4.498;2022-07-29T06:34:34;20.85;67.91
72710;SHT30;60827;48.398;-4.498;2022-07-29T06:37:00;20.88;67.92
72710;SHT30;60827;48.398;-4.498;2022-07-29T06:39:25;20.94;67.66
72710;SHT30;60827;48.398;-4.498;2022-07-29T06:41:51;20.96;67.61
72710;SHT30;60827;48.398;-4.498;2022-07-29T06:44:17;21.02;67.45
72710;SHT30;60827;48.398;-4.498;2022-07-29T06:46:43;21.05;67.18
72710;SHT30;60827;48.398;-4.498;2022-07-29T06:49:09;21.13;66.94
72710;SHT30;60827;48.398;-4.498;2022-07-29T06:51:35;21.19;66.84
72710;SHT30;60827;48.398;-4.498;2022-07-29T06:54:01;21.26;66.64
72710;SHT30;60827;48.398;-4.498;2022-07-29T06:56:27;21.32;66.37
72710;SHT30;60827;48.398;-4.498;2022-07-29T06:58:52;21.39;65.92
72710;SHT30;60827;48.398;-4.498;2022-07-29T07:01:18;21.46;65.53
72710;SHT30;60827;48.398;-4.498;2022-07-29T07:03:43;21.47;65.27
72710;SHT30;60827;48.398;-4.498;2022-07-29T07:06:09;21.56;64.87
72710;SHT30;60827;48.398;-4.498;2022-07-29T07:08:34;21.60;64.49
72710;SHT30;60827;48.398;-4.498;2022-07-29T07:11:00;21.67;64.20
72710;SHT30;60827;48.398;-4.498;2022-07-29T07:13:25;21.71;63.87
72710;SHT30;60827;48.398;-4.498;2022-07-29T07:15:51;21.77;63.56
72710;SHT30;60827;48.398;-4.498;2022-07-29T07:18:17;21.81;63.14
72710;SHT30;60827;48.398;-4.498;2022-07-29T07:20:44;21.84;62.92
72710;SHT30;60827;48.398;-4.498;2022-07-29T07:23:12;21.85;62.66
72710;SHT30;60827;48.398;-4.498;2022-07-29T07:25:38;21.91;62.45
72710;SHT30;60827;48.398;-4.498;2022-07-29T07:28:03;21.98;62.15
72710;SHT30;60827;48.398;-4.498;2022-07-29T07:30:28;22.02;61.84
72710;SHT30;60827;48.398;-4.498;2022-07-29T07:32:54;22.07;61.59
72710;SHT30;60827;48.398;-4.498;2022-07-29T07:35:20;22.15;61.45
72710;SHT30;60827;48.398;-4.498;2022-07-29T07:37:46;22.21;61.07
72710;SHT30;60827;48.398;-4.498;2022-07-29T07:40:12;22.29;60.76
72710;SHT30;60827;48.398;-4.498;2022-07-29T07:42:39;22.29;60.28
72710;SHT30;60827;48.398;-4.498;2022-07-29T07:45:06;22.34;60.07
72710;SHT30;60827;48.398;-4.498;2022-07-29T07:47:34;22.44;59.92
72710;SHT30;60827;48.398;-4.498;2022-07-29T07:49:59;22.48;59.84
72710;SHT30;60827;48.398;-4.498;2022-07-29T07:52:25;22.56;59.68
72710;SHT30;60827;48.398;-4.498;2022-07-29T07:54:51;22.60;59.70
72710;SHT30;60827;48.398;-4.498;2022-07-29T07:57:16;22.65;59.67
72710;SHT30;60827;48.398;-4.498;2022-07-29T07:59:42;22.72;59.60
72710;SHT30;60827;48.398;-4.498;2022-07-29T08:02:09;22.77;59.56
72710;SHT30;60827;48.398;-4.498;2022-07-29T08:04:34;22.85;59.31
72710;SHT30;60827;48.398;-4.498;2022-07-29T08:07:01;22.90;59.16
72710;SHT30;60827;48.398;-4.498;2022-07-29T08:09:27;22.95;58.98
72710;SHT30;60827;48.398;-4.498;2022-07-29T08:11:53;23.03;58.58
72710;SHT30;60827;48.398;-4.498;2022-07-29T08:14:19;23.06;58.11
72710;SHT30;60827;48.398;-4.498;2022-07-29T08:16:44;23.11;57.90
72710;SHT30;60827;48.398;-4.498;2022-07-29T08:19:10;23.17;57.86
72710;SHT30;60827;48.398;-4.498;2022-07-29T08:21:36;23.24;57.89
72710;SHT30;60827;48.398;-4.498;2022-07-29T08:24:02;23.33;57.30
72710;SHT30;60827;48.398;-4.498;2022-07-29T08:26:46;23.37;57.25
72710;SHT30;60827;48.398;-4.498;2022-07-29T08:29:11;23.43;56.88
72710;SHT30;60827;48.398;-4.498;2022-07-29T08:31:38;23.50;56.80
72710;SHT30;60827;48.398;-4.498;2022-07-29T08:34:04;23.59;56.59
72710;SHT30;60827;48.398;-4.498;2022-07-29T08:36:30;23.65;56.33
72710;SHT30;60827;48.398;-4.498;2022-07-29T08:38:57;23.72;56.37
72710;SHT30;60827;48.398;-4.498;2022-07-29T08:41:22;23.78;56.35
72710;SHT30;60827;48.398;-4.498;2022-07-29T08:43:49;23.85;55.75
72710;SHT30;60827;48.398;-4.498;2022-07-29T08:46:16;23.90;55.16
72710;SHT30;60827;48.398;-4.498;2022-07-29T08:48:43;23.96;54.85
72710;SHT30;60827;48.398;-4.498;2022-07-29T08:51:13;24.08;54.49
72710;SHT30;60827;48.398;-4.498;2022-07-29T08:53:41;24.12;54.22
72710;SHT30;60827;48.398;-4.498;2022-07-29T08:56:11;24.16;53.68
72710;SHT30;60827;48.398;-4.498;2022-07-29T08:58:37;24.22;53.69
72710;SHT30;60827;48.398;-4.498;2022-07-29T09:01:04;24.29;53.69
72710;SHT30;60827;48.398;-4.498;2022-07-29T09:03:31;24.36;53.30
72710;SHT30;60827;48.398;-4.498;2022-07-29T09:05:58;24.47;53.15
72710;SHT30;60827;48.398;-4.498;2022-07-29T09:08:24;24.52;52.66
72710;SHT30;60827;48.398;-4.498;2022-07-29T09:10:50;24.57;52.48
72710;SHT30;60827;48.398;-4.498;2022-07-29T09:13:16;24.61;52.40
72710;SHT30;60827;48.398;-4.498;2022-07-29T09:15:42;24.70;52.21
72710;SHT30;60827;48.398;-4.498;2022-07-29T09:18:07;24.77;52.01
72710;SHT30;60827;48.398;-4.498;2022-07-29T09:20:33;24.83;51.59
72710;SHT30;60827;48.398;-4.498;2022-07-29T09:23:17;24.94;51.49
72710;SHT30;60827;48.398;-4.498;2022-07-29T09:25:42;24.95;51.25
72710;SHT30;60827;48.398;-4.498;2022-07-29T09:28:13;25.01;51.11
72710;SHT30;60827;48.398;-4.498;2022-07-29T09:30:59;25.10;50.17
72710;SHT30;60827;48.398;-4.498;2022-07-29T09:33:32;25.14;48.87
72710;SHT30;60827;48.398;-4.498;2022-07-29T09:36:09;25.17;49.01
72710;SHT30;60827;48.398;-4.498;2022-07-29T09:38:35;25.27;49.56
72710;SHT30;60827;48.398;-4.498;2022-07-29T09:41:03;25.29;49.27
72710;SHT30;60827;48.398;-4.498;2022-07-29T09:43:29;25.37;49.43
72710;SHT30;60827;48.398;-4.498;2022-07-29T09:45:54;25.43;49.29
72710;SHT30;60827;48.398;-4.498;2022-07-29T09:48:22;25.49;49.23
72710;SHT30;60827;48.398;-4.498;2022-07-29T09:50:51;25.59;49.17
72710;SHT30;60827;48.398;-4.498;2022-07-29T09:53:36;25.68;48.23
72710;SHT30;60827;48.398;-4.498;2022-07-29T09:56:03;25.68;48.37
72710;SHT30;60827;48.398;-4.498;2022-07-29T09:58:28;25.73;48.49
72710;SHT30;60827;48.398;-4.498;2022-07-29T10:00:55;25.80;48.41
72710;SHT30;60827;48.398;-4.498;2022-07-29T10:03:21;25.90;48.63
72710;SHT30;60827;48.398;-4.498;2022-07-29T10:06:07;25.94;47.48
72710;SHT30;60827;48.398;-4.498;2022-07-29T10:08:33;26.04;47.89
72710;SHT30;60827;48.398;-4.498;2022-07-29T10:11:13;26.09;46.38
72710;SHT30;60827;48.398;-4.498;2022-07-29T10:13:40;26.17;47.30
72710;SHT30;60827;48.398;-4.498;2022-07-29T10:16:06;26.24;47.02
72710;SHT30;60827;48.398;-4.498;2022-07-29T10:18:32;26.21;47.21
72710;SHT30;60827;48.398;-4.498;2022-07-29T10:20:58;26.31;47.18
72710;SHT30;60827;48.398;-4.498;2022-07-29T10:23:27;26.34;46.71
72710;SHT30;60827;48.398;-4.498;2022-07-29T10:25:53;26.38;46.63
72710;SHT30;60827;48.398;-4.498;2022-07-29T10:28:19;26.45;46.76
72710;SHT30;60827;48.398;-4.498;2022-07-29T10:30:45;26.54;46.73
72710;SHT30;60827;48.398;-4.498;2022-07-29T10:42:00;26.75;46.26
72710;SHT30;60827;48.398;-4.498;2022-07-29T10:44:27;26.81;46.15
72710;SHT30;60827;48.398;-4.498;2022-07-29T10:46:53;26.92;45.86
72710;SHT30;60827;48.398;-4.498;2022-07-29T10:49:21;27.03;45.80
72710;SHT30;60827;48.398;-4.498;2022-07-29T10:54:16;27.16;45.22
72710;SHT30;60827;48.398;-4.498;2022-07-29T10:56:42;27.23;45.21
72710;SHT30;60827;48.398;-4.498;2022-07-29T11:01:48;27.45;45.14
72710;SHT30;60827;48.398;-4.498;2022-07-29T11:04:15;27.56;44.30
72710;SHT30;60827;48.398;-4.498;2022-07-29T11:07:06;27.53;42.43
72710;SHT30;60827;48.398;-4.498;2022-07-29T11:09:33;27.63;43.91
72710;SHT30;60827;48.398;-4.498;2022-07-29T11:11:58;27.70;44.18
72710;SHT30;60827;48.398;-4.498;2022-07-29T11:17:18;27.88;43.85
72710;SHT30;60827;48.398;-4.498;2022-07-29T11:19:43;28.00;43.80
72710;SHT30;60827;48.398;-4.498;2022-07-29T11:22:10;28.09;43.67
72710;SHT30;60827;48.398;-4.498;2022-07-29T11:24:36;28.19;43.24
72710;SHT30;60827;48.398;-4.498;2022-07-29T11:27:12;28.21;42.44
72710;SHT30;60827;48.398;-4.498;2022-07-29T11:29:58;28.29;41.98
72710;SHT30;60827;48.398;-4.498;2022-07-29T11:32:36;28.39;41.68
72710;SHT30;60827;48.398;-4.498;2022-07-29T11:35:15;28.45;41.74
72710;SHT30;60827;48.398;-4.498;2022-07-29T11:37:40;28.55;42.32
72710;SHT30;60827;48.398;-4.498;2022-07-29T11:47:51;28.80;40.67
72710;SHT30;60827;48.398;-4.498;2022-07-29T11:50:32;28.93;40.70
72710;SHT30;60827;48.398;-4.498;2022-07-29T11:52:58;28.99;41.35
72710;SHT30;60827;48.398;-4.498;2022-07-29T11:55:25;29.09;41.26
72710;SHT30;60827;48.398;-4.498;2022-07-29T11:57:58;29.17;41.18
72710;SHT30;60827;48.398;-4.498;2022-07-29T12:03:01;29.44;40.84
72710;SHT30;60827;48.398;-4.498;2022-07-29T12:05:44;29.53;39.96
72710;SHT30;60827;48.398;-4.498;2022-07-29T12:10:40;29.74;40.11
72710;SHT30;60827;48.398;-4.498;2022-07-29T12:13:05;29.81;40.02
72710;SHT30;60827;48.398;-4.498;2022-07-29T12:15:31;29.92;40.02
72710;SHT30;60827;48.398;-4.498;2022-07-29T12:17:57;29.99;39.80
72710;SHT30;60827;48.398;-4.498;2022-07-29T12:20:27;30.06;39.87
72710;SHT30;60827;48.398;-4.498;2022-07-29T12:22:54;30.13;39.42
72710;SHT30;60827;48.398;-4.498;2022-07-29T12:25:21;30.20;38.98
72710;SHT30;60827;48.398;-4.498;2022-07-29T12:27:57;30.28;38.43
72710;SHT30;60827;48.398;-4.498;2022-07-29T12:30:23;30.35;39.20
72710;SHT30;60827;48.398;-4.498;2022-07-29T12:32:58;30.52;39.19
72710;SHT30;60827;48.398;-4.498;2022-07-29T12:35:24;30.63;39.14
72710;SHT30;60827;48.398;-4.498;2022-07-29T12:37:50;30.80;38.97
72710;SHT30;60827;48.398;-4.498;2022-07-29T12:40:18;30.90;38.89
72710;SHT30;60827;48.398;-4.498;2022-07-29T12:45:32;31.07;38.73
72710;SHT30;60827;48.398;-4.498;2022-07-29T12:47:58;31.17;38.66
72710;SHT30;60827;48.398;-4.498;2022-07-29T12:50:23;31.22;38.47
72710;SHT30;60827;48.398;-4.498;2022-07-29T12:52:50;31.31;38.38
72710;SHT30;60827;48.398;-4.498;2022-07-29T12:55:15;31.39;38.02
72710;SHT30;60827;48.398;-4.498;2022-07-29T12:57:48;31.49;37.59
72710;SHT30;60827;48.398;-4.498;2022-07-29T13:00:16;31.57;37.69
72710;SHT30;60827;48.398;-4.498;2022-07-29T13:02:42;31.68;37.78
72710;SHT30;60827;48.398;-4.498;2022-07-29T13:05:09;31.85;37.51
72710;SHT30;60827;48.398;-4.498;2022-07-29T13:07:36;31.88;37.21
72710;SHT30;60827;48.398;-4.498;2022-07-29T13:12:38;32.06;36.73
72710;SHT30;60827;48.398;-4.498;2022-07-29T13:15:14;32.17;36.19
72710;SHT30;60827;48.398;-4.498;2022-07-29T13:17:41;32.36;36.72
72710;SHT30;60827;48.398;-4.498;2022-07-29T13:20:09;32.41;35.74
72710;SHT30;60827;48.398;-4.498;2022-07-29T13:22:37;32.50;36.01
72710;SHT30;60827;48.398;-4.498;2022-07-29T13:25:03;32.61;35.41
72710;SHT30;60827;48.398;-4.498;2022-07-29T13:27:31;32.68;35.72
72710;SHT30;60827;48.398;-4.498;2022-07-29T13:29:59;32.78;35.46
72710;SHT30;60827;48.398;-4.498;2022-07-29T13:32:26;32.78;35.22
72710;SHT30;60827;48.398;-4.498;2022-07-29T13:34:52;32.91;35.14
72710;SHT30;60827;48.398;-4.498;2022-07-29T13:37:19;32.97;34.96
72710;SHT30;60827;48.398;-4.498;2022-07-29T13:39:44;33.12;35.16
72710;SHT30;60827;48.398;-4.498;2022-07-29T13:42:10;33.29;35.03
72710;SHT30;60827;48.398;-4.498;2022-07-29T13:44:38;33.55;34.91
72710;SHT30;60827;48.398;-4.498;2022-07-29T13:47:04;33.73;34.70
72710;SHT30;60827;48.398;-4.498;2022-07-29T13:49:29;33.93;34.59
72710;SHT30;60827;48.398;-4.498;2022-07-29T13:51:55;34.16;34.25
72710;SHT30;60827;48.398;-4.498;2022-07-29T13:54:20;34.33;33.81
72710;SHT30;60827;48.398;-4.498;2022-07-29T13:56:46;34.55;33.47
72710;SHT30;60827;48.398;-4.498;2022-07-29T13:59:12;34.61;32.60
72710;SHT30;60827;48.398;-4.498;2022-07-29T14:01:38;34.67;32.49
72710;SHT30;60827;48.398;-4.498;2022-07-29T14:04:06;34.72;32.26
72710;SHT30;60827;48.398;-4.498;2022-07-29T14:06:33;34.81;31.93
72710;SHT30;60827;48.398;-4.498;2022-07-29T14:08:59;34.89;31.93
72710;SHT30;60827;48.398;-4.498;2022-07-29T14:11:24;35.00;31.86
72710;SHT30;60827;48.398;-4.498;2022-07-29T14:13:49;35.16;31.59
72710;SHT30;60827;48.398;-4.498;2022-07-29T14:16:15;35.29;31.47
72710;SHT30;60827;48.398;-4.498;2022-07-29T14:18:40;35.43;31.29
72710;SHT30;60827;48.398;-4.498;2022-07-29T14:21:06;35.54;31.13
72710;SHT30;60827;48.398;-4.498;2022-07-29T14:23:31;35.66;31.00
72710;SHT30;60827;48.398;-4.498;2022-07-29T14:25:56;35.77;30.69
72710;SHT30;60827;48.398;-4.498;2022-07-29T14:28:22;35.84;30.49
72710;SHT30;60827;48.398;-4.498;2022-07-29T14:30:47;35.96;30.21
72710;SHT30;60827;48.398;-4.498;2022-07-29T14:33:13;36.10;30.07
72710;SHT30;60827;48.398;-4.498;2022-07-29T14:35:39;36.14;29.42
72710;SHT30;60827;48.398;-4.498;2022-07-29T14:38:04;36.08;29.23
72710;SHT30;60827;48.398;-4.498;2022-07-29T14:40:30;36.05;29.61
72710;SHT30;60827;48.398;-4.498;2022-07-29T14:42:55;36.16;29.53
72710;SHT30;60827;48.398;-4.498;2022-07-29T14:45:20;36.28;29.31
72710;SHT30;60827;48.398;-4.498;2022-07-29T14:47:46;36.25;29.06
72710;SHT30;60827;48.398;-4.498;2022-07-29T14:50:12;36.34;29.09
72710;SHT30;60827;48.398;-4.498;2022-07-29T14:52:38;36.48;29.05
72710;SHT30;60827;48.398;-4.498;2022-07-29T14:55:04;36.62;28.82
72710;SHT30;60827;48.398;-4.498;2022-07-29T14:57:30;36.75;28.55
72710;SHT30;60827;48.398;-4.498;2022-07-29T14:59:55;36.83;28.74
72710;SHT30;60827;48.398;-4.498;2022-07-29T15:02:20;37.00;28.37
72710;SHT30;60827;48.398;-4.498;2022-07-29T15:04:46;37.10;28.34
72710;SHT30;60827;48.398;-4.498;2022-07-29T15:07:13;37.26;28.14
72710;SHT30;60827;48.398;-4.498;2022-07-29T15:09:38;37.43;27.86
72710;SHT30;60827;48.398;-4.498;2022-07-29T15:12:04;37.54;27.77
72710;SHT30;60827;48.398;-4.498;2022-07-29T15:14:30;37.60;27.55
72710;SHT30;60827;48.398;-4.498;2022-07-29T15:16:56;37.73;27.33
72710;SHT30;60827;48.398;-4.498;2022-07-29T15:19:22;37.67;26.97
72710;SHT30;60827;48.398;-4.498;2022-07-29T15:21:47;37.73;27.08
72710;SHT30;60827;48.398;-4.498;2022-07-29T15:24:13;37.81;27.11
72710;SHT30;60827;48.398;-4.498;2022-07-29T15:26:38;37.81;27.07
72710;SHT30;60827;48.398;-4.498;2022-07-29T15:29:04;37.95;27.06
72710;SHT30;60827;48.398;-4.498;2022-07-29T15:31:29;38.11;26.95
72710;SHT30;60827;48.398;-4.498;2022-07-29T15:33:54;38.28;26.69
72710;SHT30;60827;48.398;-4.498;2022-07-29T15:36:20;38.44;26.47
72710;SHT30;60827;48.398;-4.498;2022-07-29T15:38:45;38.55;26.38
72710;SHT30;60827;48.398;-4.498;2022-07-29T15:41:14;38.80;26.16
72710;SHT30;60827;48.398;-4.498;2022-07-29T15:43:43;39.03;25.33
72710;SHT30;60827;48.398;-4.498;2022-07-29T15:46:16;39.54;25.16
72710;SHT30;60827;48.398;-4.498;2022-07-29T15:49:01;40.46;24.34
72710;SHT30;60827;48.398;-4.498;2022-07-29T15:51:27;41.31;23.72
72710;SHT30;60827;48.398;-4.498;2022-07-29T15:53:53;42.00;22.91
72710;SHT30;60827;48.398;-4.498;2022-07-29T15:56:18;42.68;22.34
72710;SHT30;60827;48.398;-4.498;2022-07-29T15:58:44;43.32;21.76
72710;SHT30;60827;48.398;-4.498;2022-07-29T16:01:09;43.90;21.43
72710;SHT30;60827;48.398;-4.498;2022-07-29T16:03:35;44.27;21.17
72710;SHT30;60827;48.398;-4.498;2022-07-29T16:06:00;44.45;21.00